Aviation Digital Data Service (ADDS)

Output produced by METARs form (1106 UTC 18 June 2019)
found at http://www.aviationweather.gov/metar/data/
 
METAR text: OEMA 181100Z 30010KT CAVOK 41/M04 Q1013 NOSIG
Conditions at: OEMA (MADINAH INTL ARP, SA) observed 1100 UTC 18 June 2019
Temperature: 41.0°C (106°F)
Dewpoint: -4.0°C (25°F) [RH =  6%]
Pressure (altimeter): 29.91 inches Hg (1013.0 mb)
Winds: from the WNW (300 degrees) at 12 MPH (10 knots; 5.1 m/s)
Visibility: 6 or more miles (10+ km)
Ceiling: ceiling and visibility are OK
Clouds: unknown
Weather: no significant weather observed at this time

METAR text: OEMA 181000Z 27010KT CAVOK 40/M06 Q1013 NOSIG
Conditions at: OEMA (MADINAH INTL ARP, SA) observed 1000 UTC 18 June 2019
Temperature: 40.0°C (104°F)
Dewpoint: -6.0°C (21°F) [RH =  5%]
Pressure (altimeter): 29.91 inches Hg (1013.0 mb)
Winds: from the W (270 degrees) at 12 MPH (10 knots; 5.1 m/s)
Visibility: 6 or more miles (10+ km)
Ceiling: ceiling and visibility are OK
Clouds: unknown
Weather: no significant weather observed at this time

METAR text: OEMA 180900Z 33010KT CAVOK 38/M07 Q1014 NOSIG
Conditions at: OEMA (MADINAH INTL ARP, SA) observed 0900 UTC 18 June 2019
Temperature: 38.0°C (100°F)
Dewpoint: -7.0°C (19°F) [RH =  5%]
Pressure (altimeter): 29.94 inches Hg (1014.0 mb)
Winds: from the NNW (330 degrees) at 12 MPH (10 knots; 5.1 m/s)
Visibility: 6 or more miles (10+ km)
Ceiling: ceiling and visibility are OK
Clouds: unknown
Weather: no significant weather observed at this time

METAR text: OEMA 180800Z 28010KT CAVOK 38/M07 Q1014 NOSIG
Conditions at: OEMA (MADINAH INTL ARP, SA) observed 0800 UTC 18 June 2019
Temperature: 38.0°C (100°F)
Dewpoint: -7.0°C (19°F) [RH =  5%]
Pressure (altimeter): 29.94 inches Hg (1014.0 mb)
Winds: from the W (280 degrees) at 12 MPH (10 knots; 5.1 m/s)
Visibility: 6 or more miles (10+ km)
Ceiling: ceiling and visibility are OK
Clouds: unknown
Weather: no significant weather observed at this time

METAR text: OEMA 180700Z 29004KT CAVOK 36/M08 Q1014 NOSIG
Conditions at: OEMA (MADINAH INTL ARP, SA) observed 0700 UTC 18 June 2019
Temperature: 36.0°C (97°F)
Dewpoint: -8.0°C (18°F) [RH =  6%]
Pressure (altimeter): 29.94 inches Hg (1014.0 mb)
Winds: from the WNW (290 degrees) at 5 MPH (4 knots; 2.1 m/s)
Visibility: 6 or more miles (10+ km)
Ceiling: ceiling and visibility are OK
Clouds: unknown
Weather: no significant weather observed at this time

METAR text: OEMA 180600Z 28003KT CAVOK 35/M08 Q1015 NOSIG
Conditions at: OEMA (MADINAH INTL ARP, SA) observed 0600 UTC 18 June 2019
Temperature: 35.0°C (95°F)
Dewpoint: -8.0°C (18°F) [RH =  6%]
Pressure (altimeter): 29.97 inches Hg (1015.0 mb)
Winds: from the W (280 degrees) at 3 MPH (3 knots; 1.5 m/s)
Visibility: 6 or more miles (10+ km)
Ceiling: ceiling and visibility are OK
Clouds: unknown
Weather: no significant weather observed at this time

METAR text: OEMA 180500Z 08003KT CAVOK 32/M03 Q1014 NOSIG
Conditions at: OEMA (MADINAH INTL ARP, SA) observed 0500 UTC 18 June 2019
Temperature: 32.0°C (90°F)
Dewpoint: -3.0°C (27°F) [RH = 10%]
Pressure (altimeter): 29.94 inches Hg (1014.0 mb)
Winds: from the E (80 degrees) at 3 MPH (3 knots; 1.5 m/s)
Visibility: 6 or more miles (10+ km)
Ceiling: ceiling and visibility are OK
Clouds: unknown
Weather: no significant weather observed at this time

METAR text: OEMA 180400Z 33005KT CAVOK 31/M04 Q1014 NOSIG
Conditions at: OEMA (MADINAH INTL ARP, SA) observed 0400 UTC 18 June 2019
Temperature: 31.0°C (88°F)
Dewpoint: -4.0°C (25°F) [RH = 10%]
Pressure (altimeter): 29.94 inches Hg (1014.0 mb)
Winds: from the NNW (330 degrees) at 6 MPH (5 knots; 2.6 m/s)
Visibility: 6 or more miles (10+ km)
Ceiling: ceiling and visibility are OK
Clouds: unknown
Weather: no significant weather observed at this time

METAR text: OEMA 180300Z 00000KT CAVOK 29/M02 Q1013 NOSIG
Conditions at: OEMA (MADINAH INTL ARP, SA) observed 0300 UTC 18 June 2019
Temperature: 29.0°C (84°F)
Dewpoint: -2.0°C (28°F) [RH = 13%]
Pressure (altimeter): 29.91 inches Hg (1013.0 mb)
Winds: calm
Visibility: 6 or more miles (10+ km)
Ceiling: ceiling and visibility are OK
Clouds: unknown
Weather: no significant weather observed at this time

METAR text: OEMA 180200Z 04003KT CAVOK 31/M01 Q1013 NOSIG
Conditions at: OEMA (MADINAH INTL ARP, SA) observed 0200 UTC 18 June 2019
Temperature: 31.0°C (88°F)
Dewpoint: -1.0°C (30°F) [RH = 13%]
Pressure (altimeter): 29.91 inches Hg (1013.0 mb)
Winds: from the NE (40 degrees) at 3 MPH (3 knots; 1.5 m/s)
Visibility: 6 or more miles (10+ km)
Ceiling: ceiling and visibility are OK
Clouds: unknown
Weather: no significant weather observed at this time

METAR text: OEMA 180100Z 32004KT CAVOK 32/00 Q1012 NOSIG
Conditions at: OEMA (MADINAH INTL ARP, SA) observed 0100 UTC 18 June 2019
Temperature: 32.0°C (90°F)
Dewpoint: 0.0°C (32°F) [RH = 13%]
Pressure (altimeter): 29.88 inches Hg (1012.0 mb)
Winds: from the NW (320 degrees) at 5 MPH (4 knots; 2.1 m/s)
Visibility: 6 or more miles (10+ km)
Ceiling: ceiling and visibility are OK
Clouds: unknown
Weather: no significant weather observed at this time

METAR text: OEMA 180000Z 35004KT CAVOK 32/M01 Q1012 NOSIG
Conditions at: OEMA (MADINAH INTL ARP, SA) observed 0000 UTC 18 June 2019
Temperature: 32.0°C (90°F)
Dewpoint: -1.0°C (30°F) [RH = 12%]
Pressure (altimeter): 29.88 inches Hg (1012.0 mb)
Winds: from the N (350 degrees) at 5 MPH (4 knots; 2.1 m/s)
Visibility: 6 or more miles (10+ km)
Ceiling: ceiling and visibility are OK
Clouds: unknown
Weather: no significant weather observed at this time

METAR text: OEMA 172300Z 32005KT CAVOK 33/M02 Q1012 NOSIG
Conditions at: OEMA (MADINAH INTL ARP, SA) observed 2300 UTC 17 June 2019
Temperature: 33.0°C (91°F)
Dewpoint: -2.0°C (28°F) [RH = 10%]
Pressure (altimeter): 29.88 inches Hg (1012.0 mb)
Winds: from the NW (320 degrees) at 6 MPH (5 knots; 2.6 m/s)
Visibility: 6 or more miles (10+ km)
Ceiling: ceiling and visibility are OK
Clouds: unknown
Weather: no significant weather observed at this time

METAR text: OEMA 172200Z 34007KT CAVOK 34/M01 Q1013 NOSIG
Conditions at: OEMA (MADINAH INTL ARP, SA) observed 2200 UTC 17 June 2019
Temperature: 34.0°C (93°F)
Dewpoint: -1.0°C (30°F) [RH = 11%]
Pressure (altimeter): 29.91 inches Hg (1013.0 mb)
Winds: from the NNW (340 degrees) at 8 MPH (7 knots; 3.6 m/s)
Visibility: 6 or more miles (10+ km)
Ceiling: ceiling and visibility are OK
Clouds: unknown
Weather: no significant weather observed at this time

METAR text: OEMA 172100Z 32008KT CAVOK 35/M02 Q1013 NOSIG
Conditions at: OEMA (MADINAH INTL ARP, SA) observed 2100 UTC 17 June 2019
Temperature: 35.0°C (95°F)
Dewpoint: -2.0°C (28°F) [RH =  9%]
Pressure (altimeter): 29.91 inches Hg (1013.0 mb)
Winds: from the NW (320 degrees) at 9 MPH (8 knots; 4.1 m/s)
Visibility: 6 or more miles (10+ km)
Ceiling: ceiling and visibility are OK
Clouds: unknown
Weather: no significant weather observed at this time

METAR text: OEMA 172000Z 21008KT CAVOK 36/M01 Q1011 NOSIG
Conditions at: OEMA (MADINAH INTL ARP, SA) observed 2000 UTC 17 June 2019
Temperature: 36.0°C (97°F)
Dewpoint: -1.0°C (30°F) [RH = 10%]
Pressure (altimeter): 29.85 inches Hg (1011.0 mb)
Winds: from the SSW (210 degrees) at 9 MPH (8 knots; 4.1 m/s)
Visibility: 6 or more miles (10+ km)
Ceiling: ceiling and visibility are OK
Clouds: unknown
Weather: no significant weather observed at this time

METAR text: OEMA 171900Z 31010KT CAVOK 37/M04 Q1013 NOSIG
Conditions at: OEMA (MADINAH INTL ARP, SA) observed 1900 UTC 17 June 2019
Temperature: 37.0°C (99°F)
Dewpoint: -4.0°C (25°F) [RH =  7%]
Pressure (altimeter): 29.91 inches Hg (1013.0 mb)
Winds: from the NW (310 degrees) at 12 MPH (10 knots; 5.1 m/s)
Visibility: 6 or more miles (10+ km)
Ceiling: ceiling and visibility are OK
Clouds: unknown
Weather: no significant weather observed at this time

METAR text: OEMA 171800Z 32006KT CAVOK 38/M04 Q1012 NOSIG
Conditions at: OEMA (MADINAH INTL ARP, SA) observed 1800 UTC 17 June 2019
Temperature: 38.0°C (100°F)
Dewpoint: -4.0°C (25°F) [RH =  7%]
Pressure (altimeter): 29.88 inches Hg (1012.0 mb)
Winds: from the NW (320 degrees) at 7 MPH (6 knots; 3.1 m/s)
Visibility: 6 or more miles (10+ km)
Ceiling: ceiling and visibility are OK
Clouds: unknown
Weather: no significant weather observed at this time

METAR text: OEMA 171700Z 34012KT CAVOK 39/M02 Q1012 NOSIG
Conditions at: OEMA (MADINAH INTL ARP, SA) observed 1700 UTC 17 June 2019
Temperature: 39.0°C (102°F)
Dewpoint: -2.0°C (28°F) [RH =  8%]
Pressure (altimeter): 29.88 inches Hg (1012.0 mb)
Winds: from the NNW (340 degrees) at 14 MPH (12 knots; 6.2 m/s)
Visibility: 6 or more miles (10+ km)
Ceiling: ceiling and visibility are OK
Clouds: unknown
Weather: no significant weather observed at this time

METAR text: OEMA 171600Z 32011KT CAVOK 40/M04 Q1011 NOSIG
Conditions at: OEMA (MADINAH INTL ARP, SA) observed 1600 UTC 17 June 2019
Temperature: 40.0°C (104°F)
Dewpoint: -4.0°C (25°F) [RH =  6%]
Pressure (altimeter): 29.85 inches Hg (1011.0 mb)
Winds: from the NW (320 degrees) at 13 MPH (11 knots; 5.7 m/s)
Visibility: 6 or more miles (10+ km)
Ceiling: ceiling and visibility are OK
Clouds: unknown
Weather: no significant weather observed at this time

METAR text: OEMA 171500Z 29013KT CAVOK 40/M03 Q1011 NOSIG
Conditions at: OEMA (MADINAH INTL ARP, SA) observed 1500 UTC 17 June 2019
Temperature: 40.0°C (104°F)
Dewpoint: -3.0°C (27°F) [RH =  7%]
Pressure (altimeter): 29.85 inches Hg (1011.0 mb)
Winds: from the WNW (290 degrees) at 15 MPH (13 knots; 6.7 m/s)
Visibility: 6 or more miles (10+ km)
Ceiling: ceiling and visibility are OK
Clouds: unknown
Weather: no significant weather observed at this time

METAR text: OEMA 171400Z 31012KT CAVOK 41/M02 Q1011 NOSIG
Conditions at: OEMA (MADINAH INTL ARP, SA) observed 1400 UTC 17 June 2019
Temperature: 41.0°C (106°F)
Dewpoint: -2.0°C (28°F) [RH =  7%]
Pressure (altimeter): 29.85 inches Hg (1011.0 mb)
Winds: from the NW (310 degrees) at 14 MPH (12 knots; 6.2 m/s)
Visibility: 6 or more miles (10+ km)
Ceiling: ceiling and visibility are OK
Clouds: unknown
Weather: no significant weather observed at this time

METAR text: OEMA 171300Z 30012KT CAVOK 42/M02 Q1011 NO7 METAR
Conditions at: OEMA (MADINAH INTL ARP, SA) observed 1300 UTC 17 June 2019
Temperature: 42.0°C (108°F)
Dewpoint: -2.0°C (28°F) [RH =  6%]
Pressure (altimeter): 29.85 inches Hg (1011.0 mb)
Winds: from the WNW (300 degrees) at 14 MPH (12 knots; 6.2 m/s)
Visibility: 6 or more miles (10+ km)
Ceiling: ceiling and visibility are OK
Clouds: unknown
Weather: no significant weather observed at this time

METAR text: OEMA 171200Z 25007KT CAVOK 40/M03 Q1012 NOSIG
Conditions at: OEMA (MADINAH INTL ARP, SA) observed 1200 UTC 17 June 2019
Temperature: 40.0°C (104°F)
Dewpoint: -3.0°C (27°F) [RH =  7%]
Pressure (altimeter): 29.88 inches Hg (1012.0 mb)
Winds: from the WSW (250 degrees) at 8 MPH (7 knots; 3.6 m/s)
Visibility: 6 or more miles (10+ km)
Ceiling: ceiling and visibility are OK
Clouds: unknown
Weather: no significant weather observed at this time

METAR text: OEMA 171100Z 25008KT CAVOK 41/M03 Q1012 NOSIG
Conditions at: OEMA (MADINAH INTL ARP, SA) observed 1100 UTC 17 June 2019
Temperature: 41.0°C (106°F)
Dewpoint: -3.0°C (27°F) [RH =  6%]
Pressure (altimeter): 29.88 inches Hg (1012.0 mb)
Winds: from the WSW (250 degrees) at 9 MPH (8 knots; 4.1 m/s)
Visibility: 6 or more miles (10+ km)
Ceiling: ceiling and visibility are OK
Clouds: unknown
Weather: no significant weather observed at this time

METAR text: OEMA 171000Z 31004KT CAVOK 40/M04 Q1013 NOSIG
Conditions at: OEMA (MADINAH INTL ARP, SA) observed 1000 UTC 17 June 2019
Temperature: 40.0°C (104°F)
Dewpoint: -4.0°C (25°F) [RH =  6%]
Pressure (altimeter): 29.91 inches Hg (1013.0 mb)
Winds: from the NW (310 degrees) at 5 MPH (4 knots; 2.1 m/s)
Visibility: 6 or more miles (10+ km)
Ceiling: ceiling and visibility are OK
Clouds: unknown
Weather: no significant weather observed at this time

METAR text: OEMA 170900Z 34008KT CAVOK 39/M06 Q1013 NOSIG
Conditions at: OEMA (MADINAH INTL ARP, SA) observed 0900 UTC 17 June 2019
Temperature: 39.0°C (102°F)
Dewpoint: -6.0°C (21°F) [RH =  6%]
Pressure (altimeter): 29.91 inches Hg (1013.0 mb)
Winds: from the NNW (340 degrees) at 9 MPH (8 knots; 4.1 m/s)
Visibility: 6 or more miles (10+ km)
Ceiling: ceiling and visibility are OK
Clouds: unknown
Weather: no significant weather observed at this time

METAR text: OEMA 170800Z 27006KT CAVOK 37/M04 Q1014 NOSIG
Conditions at: OEMA (MADINAH INTL ARP, SA) observed 0800 UTC 17 June 2019
Temperature: 37.0°C (99°F)
Dewpoint: -4.0°C (25°F) [RH =  7%]
Pressure (altimeter): 29.94 inches Hg (1014.0 mb)
Winds: from the W (270 degrees) at 7 MPH (6 knots; 3.1 m/s)
Visibility: 6 or more miles (10+ km)
Ceiling: ceiling and visibility are OK
Clouds: unknown
Weather: no significant weather observed at this time

METAR text: OEMA 170700Z 26006KT CAVOK 36/M03 Q1014 NOSIG
Conditions at: OEMA (MADINAH INTL ARP, SA) observed 0700 UTC 17 June 2019
Temperature: 36.0°C (97°F)
Dewpoint: -3.0°C (27°F) [RH =  8%]
Pressure (altimeter): 29.94 inches Hg (1014.0 mb)
Winds: from the W (260 degrees) at 7 MPH (6 knots; 3.1 m/s)
Visibility: 6 or more miles (10+ km)
Ceiling: ceiling and visibility are OK
Clouds: unknown
Weather: no significant weather observed at this time

METAR text: OEMA 170600Z 26006KT CAVOK 34/01 Q1014 NOSIG
Conditions at: OEMA (MADINAH INTL ARP, SA) observed 0600 UTC 17 June 2019
Temperature: 34.0°C (93°F)
Dewpoint: 1.0°C (34°F) [RH = 12%]
Pressure (altimeter): 29.94 inches Hg (1014.0 mb)
Winds: from the W (260 degrees) at 7 MPH (6 knots; 3.1 m/s)
Visibility: 6 or more miles (10+ km)
Ceiling: ceiling and visibility are OK
Clouds: unknown
Weather: no significant weather observed at this time

METAR text: OEMA 170500Z 31004KT CAVOK 32/03 Q1013 NOSIG
Conditions at: OEMA (MADINAH INTL ARP, SA) observed 0500 UTC 17 June 2019
Temperature: 32.0°C (90°F)
Dewpoint: 3.0°C (37°F) [RH = 16%]
Pressure (altimeter): 29.91 inches Hg (1013.0 mb)
Winds: from the NW (310 degrees) at 5 MPH (4 knots; 2.1 m/s)
Visibility: 6 or more miles (10+ km)
Ceiling: ceiling and visibility are OK
Clouds: unknown
Weather: no significant weather observed at this time

METAR text: OEMA 170400Z 33005KT CAVOK 31/04 Q1013 NOSIG
Conditions at: OEMA (MADINAH INTL ARP, SA) observed 0400 UTC 17 June 2019
Temperature: 31.0°C (88°F)
Dewpoint: 4.0°C (39°F) [RH = 18%]
Pressure (altimeter): 29.91 inches Hg (1013.0 mb)
Winds: from the NNW (330 degrees) at 6 MPH (5 knots; 2.6 m/s)
Visibility: 6 or more miles (10+ km)
Ceiling: ceiling and visibility are OK
Clouds: unknown
Weather: no significant weather observed at this time

METAR text: OEMA 170300Z 33005KT CAVOK 29/03 Q1012 NOSIG
Conditions at: OEMA (MADINAH INTL ARP, SA) observed 0300 UTC 17 June 2019
Temperature: 29.0°C (84°F)
Dewpoint: 3.0°C (37°F) [RH = 19%]
Pressure (altimeter): 29.88 inches Hg (1012.0 mb)
Winds: from the NNW (330 degrees) at 6 MPH (5 knots; 2.6 m/s)
Visibility: 6 or more miles (10+ km)
Ceiling: ceiling and visibility are OK
Clouds: unknown
Weather: no significant weather observed at this time

METAR text: OEMA 170200Z 35006KT CAVOK 29/02 Q1012 NOSIG
Conditions at: OEMA (MADINAH INTL ARP, SA) observed 0200 UTC 17 June 2019
Temperature: 29.0°C (84°F)
Dewpoint: 2.0°C (36°F) [RH = 18%]
Pressure (altimeter): 29.88 inches Hg (1012.0 mb)
Winds: from the N (350 degrees) at 7 MPH (6 knots; 3.1 m/s)
Visibility: 6 or more miles (10+ km)
Ceiling: ceiling and visibility are OK
Clouds: unknown
Weather: no significant weather observed at this time

METAR text: OEMA 170100Z 00000KT CAVOK 30/02 Q1011 NOSIG
Conditions at: OEMA (MADINAH INTL ARP, SA) observed 0100 UTC 17 June 2019
Temperature: 30.0°C (86°F)
Dewpoint: 2.0°C (36°F) [RH = 17%]
Pressure (altimeter): 29.85 inches Hg (1011.0 mb)
Winds: calm
Visibility: 6 or more miles (10+ km)
Ceiling: ceiling and visibility are OK
Clouds: unknown
Weather: no significant weather observed at this time

METAR text: OEMA 170000Z 00000KT CAVOK 31/04 Q1011 NOSIG
Conditions at: OEMA (MADINAH INTL ARP, SA) observed 0000 UTC 17 June 2019
Temperature: 31.0°C (88°F)
Dewpoint: 4.0°C (39°F) [RH = 18%]
Pressure (altimeter): 29.85 inches Hg (1011.0 mb)
Winds: calm
Visibility: 6 or more miles (10+ km)
Ceiling: ceiling and visibility are OK
Clouds: unknown
Weather: no significant weather observed at this time

Forecast for: OEMA (MADINAH INTL ARP, SA)
Text: TAF OEMA 180500Z 1806/1912 32013KT CAVOK
Forecast period: 0600 to 2000 UTC 18 June 2019
Forecast type: FROM: standard forecast or significant change
Winds: from the NW (320 degrees) at 15 MPH (13 knots; 6.7 m/s)
Visibility: 6 or more miles 10+ km)
Ceiling: unknown
Clouds: missing
Weather: NSW  (no significant weather)
Text: BECMG 1820/1822 VRB03KT
Forecast period: 2000 UTC 18 June 2019 to 1200 UTC 19 June 2019
Forecast type: BECOMING: Conditions expected to become as follows by 2200 UTC 18 June 2019
Winds: variable direction winds at 3 MPH (3 knots; 1.5 m/s)
Visibility: 6 or more miles 10+ km)
Ceiling: unknown
Clouds: missing
Weather: NSW  (no significant weather)